AA5792 / N914FJ 7700 Squawk Report (19th of October, 2019)

Aircraft CRJ9 Reg No. N914FJ Age N/A
Model Regional-Jet Jet engines 2 First flight 01-04
Registered 08-04-15 Rollout 01-04 Delivered 29-01-04
Construction No. 15014 Line No. N/A Series 900
ADSHEX ACA60D Airline name American Eagle Airlines Owner Mesa Airlines
Airfield based Phoenix-Sky Harbor~AZ~N First tracked 2017-07-14 00:58:00

Flight history for N914FJ

Route Flight No Date Playback
Dallas Fort Worth (DFW) - Midland Intl (MAF) - Dallas Fort Worth (DFW) AA5970 2019-11-16 09:53:00
Will Rogers World (OKC) - Dallas Fort Worth (DFW) AA5812 2019-11-16 00:46:00
Phoenix Sky Harbor Intl (PHX) - Will Rogers World (OKC) AA5775 2019-11-15 23:17:00
Phoenix Sky Harbor Intl (PHX) - Palm Springs Intl (PSP) - Phoenix Sky Harbor Intl (PHX) AA5759 2019-11-15 19:12:00
El Paso Intl (ELP) - Phoenix Sky Harbor Intl (PHX) AA5898 2019-11-15 15:47:00
Phoenix Sky Harbor Intl (PHX) - El Paso Intl (ELP) AA5713 2019-11-15 04:00:00
Dallas Fort Worth (DFW) - Phoenix Sky Harbor Intl (PHX) AA5795 2019-11-15 02:55:00
Dallas Fort Worth (DFW) - Jackson Evers Intl (JAN) - Dallas Fort Worth (DFW) AA5945 2019-11-14 23:29:00
Central Illinois Rgnl (BMI) - Dallas Fort Worth (DFW) AA5843 2019-11-14 19:22:00
Dallas Fort Worth (DFW) - Central Illinois Rgnl (BMI) AA5937 2019-11-13 23:08:00
Dallas Fort Worth (DFW) - Wichita Dwight D. Eisenhower (ICT) - Dallas Fort Worth (DFW) AA5848 2019-11-13 20:01:00
William P Hobby (HOU) - Dallas Fort Worth (DFW) AA5881 2019-11-13 17:40:00
Dallas Fort Worth (DFW) - William P Hobby (HOU) AA5723 2019-11-13 15:02:00
Rapid City Regional Airport (RAP) - Dallas Fort Worth (DFW) YV9812 2019-11-12 19:59:00
Rapid City Regional Airport (RAP) - Dallas Fort Worth (DFW) AA5763 2019-11-12 18:06:00
Dallas Fort Worth (DFW) - Rapid City Regional Airport (RAP) AA5968 2019-11-12 13:19:00
Dallas Fort Worth (DFW) - Shreveport Rgnl (SHV) - Dallas Fort Worth (DFW) AA5767 2019-11-12 02:23:00
Dallas Fort Worth (DFW) - Wichita Dwight D. Eisenhower (ICT) - Dallas Fort Worth (DFW) AA5907 2019-11-11 22:09:00
Louisville International Airport (SDF) - Dallas Fort Worth (DFW) AA5788 2019-11-11 17:57:00
Dallas Fort Worth (DFW) - Louisville International Airport (SDF) AA5992 2019-11-11 14:03:00
Time Lat Lon Altitude Heading Speed Vertical Rate
2019-10-19 16:44:46 GMT 32.919415 -97.025925 875 180 150 -768
2019-10-19 16:44:42 GMT 32.922070 -97.025925 925 180 151 -768
2019-10-19 16:44:36 GMT 32.925701 -97.025925 1,000 179 151 -896
2019-10-19 16:44:32 GMT 32.929050 -97.025871 1,050 180 150 -960
2019-10-19 16:44:25 GMT 32.933243 -97.025925 1,150 179 152 -1024
2019-10-19 16:44:20 GMT 32.936874 -97.025925 1,200 181 154 -640
2019-10-19 16:44:15 GMT 32.940643 -97.025871 1,500 179 148 -1024
2019-10-19 16:44:10 GMT 32.944519 -97.025864 1,325 180 150 -896
2019-10-19 16:44:07 GMT 32.946350 -97.025864 1,375 180 149 -960
2019-10-19 16:44:04 GMT 32.947998 -97.025864 1,500 179 148 -704
2019-10-19 16:43:59 GMT 32.951771 -97.025871 1,475 180 149 -512
2019-10-19 16:43:54 GMT 32.955215 -97.025871 1,725 180 151 -512
2019-10-19 16:43:48 GMT 32.959259 -97.025864 1,600 181 154 -1216
2019-10-19 16:43:41 GMT 32.964058 -97.025810 1,725 181 154 -960
2019-10-19 16:43:37 GMT 32.967316 -97.025810 1,775 180 159 -384
2019-10-19 16:43:33 GMT 32.970016 -97.025810 1,800 181 165 -384
2019-10-19 16:43:30 GMT 32.973267 -97.025810 1,850 180 171 -960
2019-10-19 16:43:27 GMT 32.975464 -97.025810 1,900 180 171 -1024
2019-10-19 16:43:22 GMT 32.979004 -97.025810 1,975 180 174 -896
2019-10-19 16:43:16 GMT 32.984161 -97.025810 2,050 180 178 -896
2019-10-19 16:43:11 GMT 32.987778 -97.025810 2,125 180 178 -1024
2019-10-19 16:43:08 GMT 32.991257 -97.025810 2,200 181 179 -960
2019-10-19 16:43:04 GMT 32.993408 -97.025810 2,225 181 179 -960
2019-10-19 16:42:59 GMT 32.997948 -97.025757 2,350 180 178 -896
2019-10-19 16:42:54 GMT 33.002655 -97.025810 2,400 179 178 -960
2019-10-19 16:42:51 GMT 33.004887 -97.025810 2,450 179 178 -896
2019-10-19 16:42:46 GMT 33.009212 -97.025871 2,625 179 179 -896
2019-10-19 16:42:42 GMT 33.011444 -97.025864 2,550 179 179 -896
2019-10-19 16:42:39 GMT 33.018013 -97.025871 2,700 181 179 -896
2019-10-19 16:42:35 GMT 33.020737 -97.025864 2,700 181 179 -896
2019-10-19 16:42:32 GMT 33.020737 -97.025864 2,725 181 181 -896
2019-10-19 16:42:28 GMT 33.023693 -97.025810 2,775 181 183 -1024
2019-10-19 16:42:25 GMT 33.027740 -97.025757 2,875 180 184 -1216
2019-10-19 16:42:21 GMT 33.030212 -97.025757 2,950 181 197 -1344
2019-10-19 16:42:17 GMT 33.033646 -97.025757 3,025 181 187 -768
2019-10-19 16:42:10 GMT 33.039799 -97.025642 3,100 181 194 -768
2019-10-19 16:42:07 GMT 33.041756 -97.025589 3,100 181 194 -768
2019-10-19 16:42:04 GMT 33.043991 -97.025589 3,150 181 196 -960
2019-10-19 16:42:01 GMT 33.047947 -97.025536 3,250 181 197 -1344
2019-10-19 16:41:58 GMT 33.049946 -97.025536 3,300 181 197 -1408
2019-10-19 16:41:54 GMT 33.054611 -97.025482 3,400 181 197 -1344
2019-10-19 16:41:48 GMT 33.059818 -97.025368 3,525 181 198 -1280
2019-10-19 16:41:45 GMT 33.062119 -97.025314 3,575 181 199 -1216
2019-10-19 16:41:41 GMT 33.065826 -97.025261 3,600 181 199 -1280
2019-10-19 16:41:38 GMT 33.068661 -97.025253 3,725 181 198 -1344
2019-10-19 16:41:35 GMT 33.070587 -97.025261 3,725 181 198 -1344
2019-10-19 16:41:31 GMT 33.076859 -97.025261 3,825 181 199 -1024
2019-10-19 16:41:26 GMT 33.079742 -97.025253 3,925 180 200 -1152
2019-10-19 16:41:22 GMT 33.083279 -97.025253 4,150 181 202 -768
2019-10-19 16:41:19 GMT 33.086445 -97.025192 4,050 181 202 -832
2019-10-19 16:41:14 GMT 33.090401 -97.025192 4,100 181 203 -704
2019-10-19 16:41:10 GMT 33.094543 -97.025192 4,150 181 205 64
2019-10-19 16:41:07 GMT 33.096542 -97.025154 4,150 181 206 -320
2019-10-19 16:41:04 GMT 33.100525 -97.025154 4,175 181 206 -128
2019-10-19 16:41:01 GMT 33.103592 -97.025101 4,175 181 205 64
2019-10-19 16:40:57 GMT 33.106556 -97.025085 4,175 181 205 64
2019-10-19 16:40:53 GMT 33.111237 -97.025040 4,175 181 205 64
2019-10-19 16:40:50 GMT 33.117096 -97.024933 4,175 185 202 -64
2019-10-19 16:40:47 GMT 33.117096 -97.024933 4,175 183 203 -128
2019-10-19 16:40:44 GMT 33.119751 -97.024826 4,175 184 203 -128
2019-10-19 16:40:41 GMT 33.122177 -97.024658 4,175 185 202 -64
2019-10-19 16:40:38 GMT 33.130417 -97.023941 4,175 184 205 64
2019-10-19 16:40:33 GMT 33.130417 -97.023941 4,175 184 205 64
2019-10-19 16:40:30 GMT 33.133484 -97.023727 4,175 183 207 -64
2019-10-19 16:40:27 GMT 33.134995 -97.023666 4,175 198 197 0
2019-10-19 16:40:23 GMT 33.138584 -97.023682 4,175 178 209 64
2019-10-19 16:40:20 GMT 33.142494 -97.023849 4,175 177 209 128
2019-10-19 16:40:15 GMT 33.147335 -97.024017 4,175 183 207 0
2019-10-19 16:40:12 GMT 33.150547 -97.023628 4,175 195 202 -64
2019-10-19 16:40:08 GMT 33.153763 -97.022736 4,175 197 201 0
2019-10-19 16:40:02 GMT 33.158569 -97.021034 4,175 198 199 -64
2019-10-19 16:39:58 GMT 33.162930 -97.019478 4,175 198 198 -64
2019-10-19 16:39:51 GMT 33.169399 -97.017067 4,175 198 197 64
2019-10-19 16:39:47 GMT 33.172852 -97.015816 4,175 198 197 128
2019-10-19 16:39:43 GMT 33.176010 -97.014664 4,175 198 197 -320
2019-10-19 16:39:39 GMT 33.178524 -97.013763 4,200 198 197 -448
2019-10-19 16:39:36 GMT 33.182343 -97.012306 4,250 198 196 -1088
2019-10-19 16:39:31 GMT 33.185715 -97.011032 4,300 199 197 -1408
2019-10-19 16:39:25 GMT 33.191700 -97.008606 4,500 201 196 -1472
2019-10-19 16:39:21 GMT 33.195190 -97.007027 4,600 202 196 -1536
2019-10-19 16:39:17 GMT 33.198311 -97.005524 4,700 206 195 -1536
2019-10-19 16:39:14 GMT 33.200684 -97.004227 4,750 211 193 -1536
2019-10-19 16:39:10 GMT 33.203568 -97.002136 4,825 216 192 -1600
2019-10-19 16:39:06 GMT 33.206360 -96.999168 4,950 230 188 -1536
2019-10-19 16:39:01 GMT 33.208786 -96.995163 5,150 258 186 -1664
2019-10-19 16:38:58 GMT 33.209839 -96.992302 5,150 256 186 -1664
2019-10-19 16:38:55 GMT 33.210434 -96.989944 5,250 260 186 -1664
2019-10-19 16:38:48 GMT 33.211391 -96.982765 5,500 264 190 -1600
2019-10-19 16:38:44 GMT 33.212219 -96.973900 5,550 264 190 -1600
2019-10-19 16:38:40 GMT 33.212219 -96.973900 5,625 264 191 -1600
2019-10-19 16:38:37 GMT 33.212509 -96.970657 5,700 264 191 -1600
2019-10-19 16:38:33 GMT 33.212814 -96.967422 5,800 264 191 -1600
2019-10-19 16:38:30 GMT 33.213181 -96.963631 5,925 264 192 -1600
2019-10-19 16:38:27 GMT 33.213577 -96.959724 5,950 264 192 -1600
2019-10-19 16:38:23 GMT 33.213997 -96.955521 6,050 264 193 -1600
2019-10-19 16:38:19 GMT 33.214417 -96.951263 6,175 264 193 -1600
2019-10-19 16:38:16 GMT 33.214649 -96.948738 6,225 264 194 -1600
2019-10-19 16:38:13 GMT 33.215561 -96.939514 6,400 264 194 -1600
2019-10-19 16:38:07 GMT 33.215561 -96.939514 6,425 264 194 -1600
2019-10-19 16:38:04 GMT 33.215881 -96.936050 6,525 264 195 -1600
2019-10-19 16:38:01 GMT 33.216187 -96.932991 6,600 264 195 -1600
2019-10-19 16:37:57 GMT 33.216602 -96.928223 6,725 264 196 -1600
2019-10-19 16:37:54 GMT 33.217255 -96.921280 6,800 264 196 -1536
2019-10-19 16:37:46 GMT 33.217712 -96.916771 6,975 264 195 -1408
2019-10-19 16:37:43 GMT 33.218079 -96.912491 7,025 264 195 -1280
2019-10-19 16:37:40 GMT 33.218353 -96.909302 7,125 264 195 -1344
2019-10-19 16:37:35 GMT 33.218765 -96.905235 7,175 264 195 -448
2019-10-19 16:37:32 GMT 33.219070 -96.901711 7,200 264 196 -192
2019-10-19 16:37:29 GMT 33.219406 -96.898369 7,200 264 198 -128
2019-10-19 16:37:25 GMT 33.219910 -96.892654 7,175 265 205 0
2019-10-19 16:37:20 GMT 33.220329 -96.888206 7,200 264 200 128
2019-10-19 16:37:14 GMT 33.220982 -96.881592 7,175 265 205 0
2019-10-19 16:37:11 GMT 33.221214 -96.879120 7,175 264 204 -64
2019-10-19 16:37:08 GMT 33.222015 -96.870026 7,200 265 206 0
2019-10-19 16:37:04 GMT 33.222015 -96.870026 7,200 265 205 0
2019-10-19 16:37:00 GMT 33.222336 -96.866455 7,200 265 206 0
2019-10-19 16:36:57 GMT 33.222702 -96.862167 7,200 265 205 0
2019-10-19 16:36:53 GMT 33.223076 -96.857994 7,200 265 204 0
2019-10-19 16:36:50 GMT 33.223309 -96.854851 7,200 265 202 0
2019-10-19 16:36:45 GMT 33.223663 -96.850304 7,200 265 201 0
2019-10-19 16:36:42 GMT 33.224052 -96.845322 7,175 289 193 0
2019-10-19 16:36:37 GMT 33.224350 -96.841461 7,175 266 197 64
2019-10-19 16:36:33 GMT 33.224670 -96.836624 7,200 266 198 64
2019-10-19 16:36:30 GMT 33.224991 -96.831848 7,175 267 196 64
2019-10-19 16:36:24 GMT 33.225216 -96.826546 7,175 271 195 128
2019-10-19 16:36:21 GMT 33.225170 -96.823128 7,175 276 193 64
2019-10-19 16:36:18 GMT 33.224762 -96.819595 7,175 287 193 0
2019-10-19 16:36:12 GMT 33.221169 -96.810455 7,175 306 197 64
2019-10-19 16:36:09 GMT 33.221169 -96.810455 7,150 312 198 64
2019-10-19 16:36:06 GMT 33.220367 -96.809380 7,150 315 199 64
2019-10-19 16:36:03 GMT 33.217861 -96.806587 7,150 328 202 -64
2019-10-19 16:36:00 GMT 33.215672 -96.804855 7,150 332 204 -64
2019-10-19 16:35:55 GMT 33.209427 -96.801254 7,175 337 206 0
2019-10-19 16:35:51 GMT 33.208084 -96.800537 7,175 337 206 0
2019-10-19 16:35:48 GMT 33.205536 -96.799271 7,175 337 206 0
2019-10-19 16:35:45 GMT 33.203152 -96.798012 7,175 337 206 0
2019-10-19 16:35:42 GMT 33.199722 -96.796310 7,175 337 206 0
2019-10-19 16:35:38 GMT 33.196308 -96.794540 7,175 337 206 0
2019-10-19 16:35:34 GMT 33.193405 -96.793015 7,175 337 206 0
2019-10-19 16:35:30 GMT 33.189194 -96.790871 7,175 337 206 0
2019-10-19 16:35:27 GMT 33.186810 -96.789665 7,175 337 206 0
2019-10-19 16:35:24 GMT 33.184616 -96.788506 7,175 337 206 0
2019-10-19 16:35:19 GMT 33.179169 -96.785706 7,175 337 206 0
2019-10-19 16:35:16 GMT 33.177063 -96.784607 7,175 337 206 0
2019-10-19 16:35:13 GMT 33.173584 -96.782791 7,175 337 206 0
2019-10-19 16:35:09 GMT 33.171112 -96.781479 7,175 337 206 0
2019-10-19 16:35:06 GMT 33.168423 -96.780075 7,175 337 206 0
2019-10-19 16:35:03 GMT 33.164654 -96.778114 7,175 337 206 0
2019-10-19 16:34:57 GMT 33.159809 -96.775650 7,175 337 206 0
2019-10-19 16:34:54 GMT 33.157715 -96.774529 7,175 337 206 0
2019-10-19 16:34:51 GMT 33.155251 -96.773239 7,175 337 206 0
2019-10-19 16:34:48 GMT 33.152710 -96.771919 7,175 337 206 0
2019-10-19 16:34:44 GMT 33.148079 -96.769485 7,175 337 206 0
2019-10-19 16:34:40 GMT 33.145523 -96.768181 7,175 337 206 0
2019-10-19 16:34:36 GMT 33.141796 -96.766235 7,175 337 206 0
2019-10-19 16:34:33 GMT 33.139069 -96.764832 7,175 337 206 0
2019-10-19 16:34:29 GMT 33.135651 -96.763039 7,175 337 206 0
2019-10-19 16:34:26 GMT 33.132809 -96.761581 7,175 337 206 0
2019-10-19 16:34:23 GMT 33.130096 -96.760162 7,175 337 206 0
2019-10-19 16:34:20 GMT 33.127922 -96.759003 7,175 337 206 0
2019-10-19 16:34:15 GMT 33.123093 -96.756485 7,175 337 206 0
2019-10-19 16:34:12 GMT 33.120892 -96.755356 7,175 337 206 0
2019-10-19 16:34:09 GMT 33.118286 -96.754013 7,175 337 206 0
2019-10-19 16:34:05 GMT 33.115219 -96.752419 7,175 337 206 0
2019-10-19 16:34:02 GMT 33.111256 -96.750366 7,175 337 206 0
2019-10-19 16:33:59 GMT 33.108856 -96.749176 7,175 337 206 0
2019-10-19 16:33:54 GMT 33.105110 -96.747231 7,175 337 206 0
2019-10-19 16:33:50 GMT 33.101486 -96.745384 7,175 337 206 0
2019-10-19 16:33:47 GMT 33.098328 -96.743736 7,175 337 206 0
2019-10-19 16:33:44 GMT 33.095940 -96.742523 7,175 337 206 0
2019-10-19 16:33:41 GMT 33.093334 -96.741180 7,175 337 206 0
2019-10-19 16:33:38 GMT 33.091095 -96.740059 7,175 337 206 0
2019-10-19 16:33:34 GMT 33.088120 -96.738518 7,175 337 206 0
2019-10-19 16:33:31 GMT 33.085144 -96.737038 7,175 337 206 0
2019-10-19 16:33:25 GMT 33.078094 -96.733467 7,175 337 206 0
2019-10-19 16:33:22 GMT 33.077042 -96.732918 7,175 337 206 0
2019-10-19 16:33:17 GMT 33.072712 -96.730751 7,175 337 206 0
2019-10-19 16:33:14 GMT 33.069992 -96.729401 7,175 337 206 0
2019-10-19 16:33:11 GMT 33.064285 -96.726494 7,175 337 205 0
2019-10-19 16:33:08 GMT 33.064285 -96.726494 7,175 337 205 0
2019-10-19 16:33:05 GMT 33.061119 -96.724922 7,175 337 206 0
2019-10-19 16:33:02 GMT 33.059212 -96.723915 7,175 337 206 0
2019-10-19 16:32:59 GMT 33.056046 -96.722343 7,175 338 206 0
2019-10-19 16:32:56 GMT 33.051361 -96.720009 7,175 338 206 0
2019-10-19 16:32:52 GMT 33.047470 -96.718033 7,175 338 206 0
2019-10-19 16:32:49 GMT 33.047470 -96.718033 7,175 338 207 0
2019-10-19 16:32:45 GMT 33.041977 -96.715286 7,175 338 207 0
2019-10-19 16:32:42 GMT 33.037582 -96.713089 7,175 338 207 0
2019-10-19 16:32:38 GMT 33.037582 -96.713089 7,175 338 207 0
2019-10-19 16:32:35 GMT 33.035889 -96.712257 7,175 338 207 0
2019-10-19 16:32:32 GMT 33.032864 -96.710739 7,175 338 207 0
2019-10-19 16:32:29 GMT 33.030582 -96.709618 7,175 338 207 0
2019-10-19 16:32:26 GMT 33.028114 -96.708389 7,175 338 207 0
2019-10-19 16:32:22 GMT 33.023392 -96.706001 7,175 337 208 0
2019-10-19 16:32:16 GMT 33.018585 -96.703583 7,175 337 208 0
2019-10-19 16:32:13 GMT 33.012360 -96.700455 7,175 337 208 0
2019-10-19 16:32:09 GMT 33.012360 -96.700455 7,175 337 208 0
2019-10-19 16:32:06 GMT 33.008789 -96.698639 7,175 337 208 0
2019-10-19 16:32:03 GMT 33.006454 -96.697487 7,175 337 208 0
2019-10-19 16:31:59 GMT 33.002563 -96.695511 7,175 337 208 0
2019-10-19 16:31:56 GMT 33.000324 -96.694374 7,175 337 208 0
2019-10-19 16:31:53 GMT 32.997623 -96.692970 7,175 337 208 0
2019-10-19 16:31:50 GMT 32.996040 -96.692184 7,175 337 208 0
2019-10-19 16:31:47 GMT 32.991943 -96.690109 7,175 337 209 0
2019-10-19 16:31:41 GMT 32.986916 -96.687538 7,175 337 210 0
2019-10-19 16:31:38 GMT 32.983978 -96.686058 7,175 337 210 0
2019-10-19 16:31:34 GMT 32.981323 -96.684685 7,175 337 210 0
2019-10-19 16:31:30 GMT 32.977654 -96.682823 7,175 337 210 0
2019-10-19 16:31:27 GMT 32.974319 -96.681114 7,175 337 210 0
2019-10-19 16:31:23 GMT 32.971554 -96.679688 7,175 337 210 0
2019-10-19 16:31:18 GMT 32.967728 -96.677711 7,175 337 210 0
2019-10-19 16:31:15 GMT 32.963425 -96.675514 7,175 337 210 0
2019-10-19 16:31:12 GMT 32.961544 -96.674530 7,175 337 210 0
2019-10-19 16:31:07 GMT 32.957840 -96.672653 7,175 337 210 0
2019-10-19 16:31:04 GMT 32.954189 -96.670776 7,175 337 210 0
2019-10-19 16:31:01 GMT 32.950977 -96.669151 7,175 337 210 0
2019-10-19 16:30:56 GMT 32.946835 -96.667023 7,175 337 210 0
2019-10-19 16:30:53 GMT 32.943810 -96.665451 7,175 337 210 0
2019-10-19 16:30:50 GMT 32.941483 -96.664276 7,175 337 210 0
2019-10-19 16:30:47 GMT 32.938454 -96.662704 7,175 337 210 0
2019-10-19 16:30:44 GMT 32.936554 -96.661728 7,175 337 210 0
2019-10-19 16:30:40 GMT 32.933670 -96.660294 7,175 337 210 0
2019-10-19 16:30:37 GMT 32.927811 -96.657272 7,175 337 210 0
2019-10-19 16:30:30 GMT 32.923931 -96.655304 7,175 337 210 0
2019-10-19 16:30:26 GMT 32.920532 -96.653625 7,175 337 211 0
2019-10-19 16:30:22 GMT 32.916203 -96.651436 7,175 338 210 0
2019-10-19 16:30:19 GMT 32.914307 -96.650467 7,175 338 210 0
2019-10-19 16:30:14 GMT 32.909035 -96.647797 7,175 338 210 0
2019-10-19 16:30:11 GMT 32.905960 -96.646278 7,175 338 210 0
2019-10-19 16:30:08 GMT 32.904648 -96.645576 7,175 338 210 0
2019-10-19 16:30:03 GMT 32.896362 -96.641403 7,175 337 210 0
2019-10-19 16:30:00 GMT 32.896362 -96.641403 7,175 337 210 0
2019-10-19 16:29:57 GMT 32.894577 -96.640518 7,175 337 210 0
2019-10-19 16:29:53 GMT 32.890179 -96.638268 7,175 337 210 0
2019-10-19 16:29:49 GMT 32.887154 -96.636696 7,175 337 210 0
2019-10-19 16:29:46 GMT 32.884735 -96.635468 7,175 337 210 0
2019-10-19 16:29:42 GMT 32.881241 -96.633720 7,175 337 210 0
2019-10-19 16:29:39 GMT 32.878216 -96.632156 7,175 337 210 0
2019-10-19 16:29:36 GMT 32.875076 -96.630577 7,175 337 210 0
2019-10-19 16:29:31 GMT 32.871422 -96.628677 7,175 337 210 0
2019-10-19 16:29:27 GMT 32.866951 -96.626434 7,175 337 210 0
2019-10-19 16:29:21 GMT 32.862293 -96.624023 7,175 337 210 0
2019-10-19 16:29:18 GMT 32.859329 -96.622559 7,175 337 210 0
2019-10-19 16:29:15 GMT 32.856125 -96.620911 7,175 337 209 0
2019-10-19 16:29:12 GMT 32.849960 -96.617805 7,175 337 209 0
2019-10-19 16:29:08 GMT 32.849960 -96.617805 7,175 337 209 0
2019-10-19 16:29:03 GMT 32.846146 -96.615860 7,175 337 208 0
2019-10-19 16:29:00 GMT 32.842323 -96.613937 7,175 338 208 0
2019-10-19 16:28:57 GMT 32.840607 -96.613113 7,175 337 208 0
2019-10-19 16:28:52 GMT 32.835251 -96.610420 7,175 338 208 64
2019-10-19 16:28:47 GMT 32.831104 -96.608330 7,175 338 208 0
2019-10-19 16:28:42 GMT 32.827007 -96.606255 7,175 338 208 0
2019-10-19 16:28:39 GMT 32.821842 -96.603683 7,175 337 208 0
2019-10-19 16:28:29 GMT 32.815044 -96.600258 7,175 337 210 0
2019-10-19 16:28:26 GMT 32.812271 -96.598831 7,175 337 211 0
2019-10-19 16:28:21 GMT 32.805222 -96.595261 7,175 337 212 -64
2019-10-19 16:28:17 GMT 32.805222 -96.595261 7,175 337 212 -64
2019-10-19 16:28:14 GMT 32.802986 -96.594093 7,175 337 212 -64
2019-10-19 16:28:07 GMT 32.796021 -96.590530 7,175 337 213 0
2019-10-19 16:28:04 GMT 32.792652 -96.588829 7,175 337 213 64
2019-10-19 16:27:56 GMT 32.785717 -96.585297 7,175 337 212 -64
2019-10-19 16:27:53 GMT 32.783295 -96.584053 7,175 337 212 -64
2019-10-19 16:27:49 GMT 32.778687 -96.581703 7,175 337 211 0
2019-10-19 16:27:46 GMT 32.776314 -96.580475 7,175 337 211 0
2019-10-19 16:27:43 GMT 32.774094 -96.579330 7,175 337 211 0
2019-10-19 16:27:40 GMT 32.772171 -96.578346 7,175 337 211 0
2019-10-19 16:27:37 GMT 32.768875 -96.576637 7,175 337 211 0
2019-10-19 16:27:33 GMT 32.764755 -96.574493 7,175 337 210 0
2019-10-19 16:27:30 GMT 32.762486 -96.573357 7,175 337 210 0
2019-10-19 16:27:25 GMT 32.757935 -96.570976 7,175 337 210 0
2019-10-19 16:27:21 GMT 32.755131 -96.569603 7,175 337 210 0
2019-10-19 16:27:18 GMT 32.752213 -96.568069 7,175 337 210 0
2019-10-19 16:27:15 GMT 32.745869 -96.564835 7,175 337 209 0
2019-10-19 16:27:12 GMT 32.745869 -96.564835 7,175 337 209 0
2019-10-19 16:27:08 GMT 32.737442 -96.560684 7,175 338 208 0
2019-10-19 16:27:03 GMT 32.737442 -96.560684 7,175 338 208 0
2019-10-19 16:26:59 GMT 32.735115 -96.559570 7,175 339 209 0
2019-10-19 16:26:56 GMT 32.732666 -96.558395 7,175 339 208 0
2019-10-19 16:26:53 GMT 32.729900 -96.557098 7,175 339 208 0
2019-10-19 16:26:49 GMT 32.725758 -96.555191 7,175 340 208 0
2019-10-19 16:26:44 GMT 32.720871 -96.553062 7,175 342 209 0
2019-10-19 16:26:41 GMT 32.718567 -96.552078 7,175 356 214 0
2019-10-19 16:26:36 GMT 32.714676 -96.550766 7,175 351 212 0
2019-10-19 16:26:33 GMT 32.710072 -96.549980 7,175 0 217 -64
2019-10-19 16:26:29 GMT 32.707043 -96.549980 7,175 4 218 -64
2019-10-19 16:26:26 GMT 32.704742 -96.550217 7,175 6 219 0
2019-10-19 16:26:22 GMT 32.699890 -96.550926 7,175 7 219 0
2019-10-19 16:26:19 GMT 32.696045 -96.551529 7,175 7 219 0
2019-10-19 16:26:16 GMT 32.693436 -96.551918 7,175 7 219 0
2019-10-19 16:26:12 GMT 32.689362 -96.552574 7,175 7 219 0
2019-10-19 16:26:08 GMT 32.685562 -96.553177 7,175 7 219 0
2019-10-19 16:26:05 GMT 32.681812 -96.553734 7,175 7 219 0
2019-10-19 16:25:58 GMT 32.674850 -96.554825 7,175 7 219 0
2019-10-19 16:25:54 GMT 32.670593 -96.555489 7,175 7 219 0
2019-10-19 16:25:50 GMT 32.667389 -96.555984 7,175 7 219 0
2019-10-19 16:25:47 GMT 32.664261 -96.556480 7,175 7 219 0
2019-10-19 16:25:43 GMT 32.659698 -96.557190 7,175 7 219 0
2019-10-19 16:25:40 GMT 32.657089 -96.557571 7,175 7 219 0
2019-10-19 16:25:37 GMT 32.653927 -96.558052 7,175 7 219 0
2019-10-19 16:25:32 GMT 32.648392 -96.558945 7,175 7 219 64
2019-10-19 16:25:26 GMT 32.642532 -96.559769 7,175 7 219 0
2019-10-19 16:25:21 GMT 32.637726 -96.560516 7,175 7 220 0
2019-10-19 16:25:18 GMT 32.635307 -96.560860 7,175 7 220 0
2019-10-19 16:25:15 GMT 32.631363 -96.561478 7,175 7 220 0
2019-10-19 16:25:10 GMT 32.626465 -96.562187 7,175 7 220 0
2019-10-19 16:25:07 GMT 32.624134 -96.562538 7,175 7 220 0
2019-10-19 16:25:03 GMT 32.620270 -96.563095 7,175 7 220 0
2019-10-19 16:24:58 GMT 32.615295 -96.563889 7,175 7 220 -64
2019-10-19 16:24:55 GMT 32.612125 -96.564331 7,175 7 220 -64
2019-10-19 16:24:52 GMT 32.608864 -96.564835 7,175 7 220 0
2019-10-19 16:24:45 GMT 32.601974 -96.565956 7,175 36 226 0
2019-10-19 16:24:41 GMT 32.597740 -96.566689 7,175 8 220 0
2019-10-19 16:24:35 GMT 32.590988 -96.567848 7,175 8 217 64
2019-10-19 16:24:24 GMT 32.579956 -96.569992 7,175 10 215 0
2019-10-19 16:24:15 GMT 32.571159 -96.572350 7,150 25 221 0
2019-10-19 16:24:12 GMT 32.569153 -96.573227 7,150 25 221 0
2019-10-19 16:24:06 GMT 32.562778 -96.577499 7,175 36 225 0
2019-10-19 16:24:01 GMT 32.559753 -96.580139 7,175 37 225 0
2019-10-19 16:23:58 GMT 32.556446 -96.583107 7,175 37 225 0
2019-10-19 16:23:52 GMT 32.551483 -96.587509 7,175 36 226 0
2019-10-19 16:23:49 GMT 32.549652 -96.589157 7,175 36 226 0
2019-10-19 16:23:44 GMT 32.544617 -96.593613 7,175 36 226 0
2019-10-19 16:23:41 GMT 32.542526 -96.595497 7,175 37 227 0
2019-10-19 16:23:38 GMT 32.539314 -96.598358 7,175 37 227 0
2019-10-19 16:23:32 GMT 32.535370 -96.601852 7,150 36 227 0
2019-10-19 16:23:28 GMT 32.530891 -96.605812 7,150 36 227 0
2019-10-19 16:23:22 GMT 32.526581 -96.609650 7,175 37 229 0
2019-10-19 16:23:18 GMT 32.522644 -96.613167 7,175 36 230 -64
2019-10-19 16:23:15 GMT 32.514816 -96.620087 7,175 36 231 0
2019-10-19 16:23:08 GMT 32.514816 -96.620087 7,175 36 231 0
2019-10-19 16:23:05 GMT 32.512024 -96.622559 7,175 36 230 0
2019-10-19 16:23:01 GMT 32.507721 -96.626297 7,175 36 231 0
2019-10-19 16:22:58 GMT 32.505939 -96.627892 7,175 35 229 0
2019-10-19 16:22:55 GMT 32.501980 -96.631256 7,175 35 229 0
2019-10-19 16:22:52 GMT 32.500671 -96.632393 7,175 35 229 0
2019-10-19 16:22:48 GMT 32.496506 -96.635910 7,175 35 228 -64
2019-10-19 16:22:43 GMT 32.492622 -96.639160 7,175 34 226 -64
2019-10-19 16:22:39 GMT 32.488808 -96.642242 7,175 33 226 0
2019-10-19 16:22:34 GMT 32.485382 -96.644859 7,175 31 224 0
2019-10-19 16:22:31 GMT 32.482727 -96.646729 7,175 27 222 64
2019-10-19 16:22:26 GMT 32.477776 -96.649475 7,175 16 218 0
2019-10-19 16:22:20 GMT 32.472794 -96.650848 7,175 1 213 0
2019-10-19 16:22:15 GMT 32.467766 -96.650879 7,175 349 207 0
2019-10-19 16:22:09 GMT 32.461761 -96.649033 7,175 336 203 0
2019-10-19 16:22:02 GMT 32.456085 -96.644806 7,175 323 199 0
2019-10-19 16:21:58 GMT 32.454117 -96.642334 7,175 307 195 0
2019-10-19 16:21:54 GMT 32.451416 -96.637062 7,175 290 191 0
2019-10-19 16:21:47 GMT 32.450180 -96.631401 7,175 279 191 64
2019-10-19 16:21:41 GMT 32.450588 -96.623970 7,150 247 195 0
2019-10-19 16:21:38 GMT 32.451286 -96.621338 7,150 247 195 0
2019-10-19 16:21:31 GMT 32.454407 -96.615005 7,175 231 199 -64
2019-10-19 16:21:25 GMT 32.458008 -96.610146 7,175 228 199 0
2019-10-19 16:21:20 GMT 32.461014 -96.606201 7,175 229 198 0
2019-10-19 16:21:16 GMT 32.463913 -96.602402 7,175 228 198 0
2019-10-19 16:21:13 GMT 32.465439 -96.600372 7,175 229 197 0
2019-10-19 16:21:10 GMT 32.467117 -96.598221 7,175 229 194 0
2019-10-19 16:21:06 GMT 32.469910 -96.594543 7,175 229 196 0
2019-10-19 16:21:03 GMT 32.471767 -96.592079 7,175 229 194 0
2019-10-19 16:20:59 GMT 32.473526 -96.589767 7,175 229 193 0
2019-10-19 16:20:52 GMT 32.480118 -96.581085 7,175 229 193 0
2019-10-19 16:20:49 GMT 32.480118 -96.581085 7,175 228 192 64
2019-10-19 16:20:42 GMT 32.484055 -96.575920 7,175 228 191 0
2019-10-19 16:20:38 GMT 32.486801 -96.572350 7,175 228 191 0
2019-10-19 16:20:31 GMT 32.490921 -96.566910 7,175 228 191 64
2019-10-19 16:20:27 GMT 32.493210 -96.563950 7,175 229 191 0
2019-10-19 16:20:19 GMT 32.497417 -96.558334 7,175 229 192 0
2019-10-19 16:20:15 GMT 32.499847 -96.555099 7,175 229 193 0
2019-10-19 16:20:08 GMT 32.504074 -96.549530 7,175 229 194 0
2019-10-19 16:20:03 GMT 32.506962 -96.545723 7,175 229 194 0
2019-10-19 16:19:57 GMT 32.510422 -96.541206 7,175 229 194 0
2019-10-19 16:19:53 GMT 32.512939 -96.537857 7,175 229 194 0
2019-10-19 16:19:49 GMT 32.515434 -96.534569 7,175 229 195 0
2019-10-19 16:19:46 GMT 32.517250 -96.532211 7,175 229 195 0
2019-10-19 16:19:43 GMT 32.519066 -96.529800 7,175 229 196 0
2019-10-19 16:19:37 GMT 32.522697 -96.524979 7,175 229 196 0
2019-10-19 16:19:33 GMT 32.526096 -96.520500 7,175 229 196 0
2019-10-19 16:19:29 GMT 32.528236 -96.517639 7,175 229 194 0
2019-10-19 16:19:24 GMT 32.531403 -96.513489 7,175 228 194 0
2019-10-19 16:19:21 GMT 32.532379 -96.512260 7,175 227 193 0
2019-10-19 16:19:18 GMT 32.534988 -96.509064 7,175 226 193 0
2019-10-19 16:19:14 GMT 32.537640 -96.505920 7,175 223 191 0
2019-10-19 16:19:11 GMT 32.539032 -96.504456 7,175 219 192 0
2019-10-19 16:19:03 GMT 32.547501 -96.499237 7,175 189 202 -64
2019-10-19 16:18:52 GMT 32.556152 -96.498741 7,175 176 207 0
2019-10-19 16:18:41 GMT 32.567062 -96.499649 7,175 176 209 0
2019-10-19 16:18:34 GMT 32.573547 -96.500168 7,175 175 209 0
2019-10-19 16:18:30 GMT 32.577255 -96.500504 7,175 175 210 0
2019-10-19 16:18:22 GMT 32.583961 -96.501045 7,175 175 211 0
2019-10-19 16:18:19 GMT 32.588150 -96.501434 7,175 175 211 0
2019-10-19 16:18:16 GMT 32.589523 -96.501541 7,175 175 212 0
2019-10-19 16:18:12 GMT 32.593967 -96.501884 7,175 175 212 0
2019-10-19 16:18:06 GMT 32.599880 -96.502449 7,175 175 214 0
2019-10-19 16:18:02 GMT 32.604721 -96.502861 7,175 175 214 0
2019-10-19 16:17:55 GMT 32.610855 -96.503410 7,175 175 214 0
2019-10-19 16:17:50 GMT 32.615479 -96.503853 7,200 174 214 0
2019-10-19 16:17:45 GMT 32.620735 -96.504356 7,175 175 215 64
2019-10-19 16:17:40 GMT 32.626419 -96.504898 7,175 174 214 0
2019-10-19 16:17:35 GMT 32.631775 -96.505554 7,175 173 214 0
2019-10-19 16:17:29 GMT 32.636307 -96.506157 7,175 171 214 0
2019-10-19 16:17:23 GMT 32.642578 -96.507477 7,175 167 215 64
2019-10-19 16:17:18 GMT 32.646973 -96.509232 7,175 154 220 -64
2019-10-19 16:17:13 GMT 32.652420 -96.513191 7,175 141 225 -64
2019-10-19 16:17:08 GMT 32.655853 -96.517197 7,200 129 228 0
2019-10-19 16:17:01 GMT 32.660980 -96.528900 7,200 74 236 0
2019-10-19 16:16:57 GMT 32.660980 -96.528900 7,200 104 235 -64
2019-10-19 16:16:50 GMT 32.661934 -96.538490 7,200 74 236 0
2019-10-19 16:16:46 GMT 32.661469 -96.543648 7,200 78 237 0
2019-10-19 16:16:40 GMT 32.659233 -96.551552 7,200 60 235 64
2019-10-19 16:16:37 GMT 32.657730 -96.554825 7,200 51 233 64
2019-10-19 16:16:29 GMT 32.652054 -96.562515 7,175 27 230 64
2019-10-19 16:16:25 GMT 32.649319 -96.564781 7,175 30 230 64
2019-10-19 16:16:17 GMT 32.641079 -96.568703 7,200 10 223 64
2019-10-19 16:16:14 GMT 32.638428 -96.569374 7,200 10 225 -64
2019-10-19 16:16:08 GMT 32.630604 -96.570892 7,200 9 225 0
2019-10-19 16:16:04 GMT 32.626373 -96.571747 7,200 10 224 0
2019-10-19 16:15:56 GMT 32.619572 -96.573296 7,200 12 223 64
2019-10-19 16:15:52 GMT 32.615337 -96.574532 7,175 16 223 128
2019-10-19 16:15:46 GMT 32.606827 -96.578835 7,175 36 230 0
2019-10-19 16:15:40 GMT 32.604904 -96.580482 7,175 41 231 0
2019-10-19 16:15:36 GMT 32.600487 -96.585915 7,175 52 235 -64
2019-10-19 16:15:33 GMT 32.599594 -96.587234 7,200 55 236 0
2019-10-19 16:15:29 GMT 32.596760 -96.592018 7,175 55 236 -64
2019-10-19 16:15:25 GMT 32.591686 -96.600761 7,200 55 236 0
2019-10-19 16:15:18 GMT 32.589752 -96.604103 7,200 55 236 0
2019-10-19 16:15:11 GMT 32.585541 -96.611351 7,200 55 236 0
2019-10-19 16:15:04 GMT 32.581120 -96.618927 7,200 55 236 64
2019-10-19 16:15:01 GMT 32.579678 -96.621506 7,175 55 236 64
2019-10-19 16:14:58 GMT 32.577534 -96.625092 7,175 55 236 0
2019-10-19 16:14:53 GMT 32.574463 -96.630470 7,175 55 236 0
2019-10-19 16:14:50 GMT 32.572037 -96.634644 7,175 55 236 0
2019-10-19 16:14:41 GMT 32.566452 -96.644257 7,200 55 237 -64
2019-10-19 16:14:31 GMT 32.559128 -96.656944 7,200 55 237 0
2019-10-19 16:14:20 GMT 32.553513 -96.666679 7,200 55 235 0
2019-10-19 16:14:07 GMT 32.546310 -96.679138 7,200 55 234 0
2019-10-19 16:14:00 GMT 32.541321 -96.687820 7,200 56 232 64
2019-10-19 16:13:57 GMT 32.539597 -96.690895 7,175 56 232 64
2019-10-19 16:13:54 GMT 32.537750 -96.694138 7,175 56 232 64
2019-10-19 16:13:47 GMT 32.533539 -96.701828 7,175 57 231 0
2019-10-19 16:13:44 GMT 32.532486 -96.703690 7,175 74 237 -128
2019-10-19 16:13:38 GMT 32.529076 -96.710289 7,175 62 232 64
2019-10-19 16:13:35 GMT 32.527119 -96.714836 7,175 66 233 0
2019-10-19 16:13:32 GMT 32.526215 -96.717316 7,175 71 234 -64
2019-10-19 16:13:25 GMT 32.523674 -96.727051 7,200 74 236 64
2019-10-19 16:13:22 GMT 32.521160 -96.737534 7,200 74 237 -64
2019-10-19 16:13:17 GMT 32.521160 -96.737534 7,175 74 237 -64
2019-10-19 16:13:14 GMT 32.520370 -96.741066 7,200 74 237 -64
2019-10-19 16:13:10 GMT 32.519577 -96.744316 7,200 74 237 -64
2019-10-19 16:13:03 GMT 32.517242 -96.754448 7,200 74 235 0
2019-10-19 16:12:58 GMT 32.516087 -96.759285 7,200 74 235 0
2019-10-19 16:12:55 GMT 32.515110 -96.763489 7,200 74 235 0
2019-10-19 16:12:49 GMT 32.513535 -96.770325 7,200 74 234 0
2019-10-19 16:12:43 GMT 32.511848 -96.777611 7,200 74 233 0
2019-10-19 16:12:39 GMT 32.510502 -96.783501 7,200 74 233 64
2019-10-19 16:12:32 GMT 32.507950 -96.794716 7,200 75 232 0
2019-10-19 16:12:28 GMT 32.507290 -96.797791 7,175 75 231 0
2019-10-19 16:12:20 GMT 32.505379 -96.806648 7,175 76 232 0
2019-10-19 16:12:17 GMT 32.504311 -96.811577 7,175 76 231 0
2019-10-19 16:12:10 GMT 32.502586 -96.820213 7,175 77 232 0
2019-10-19 16:12:03 GMT 32.501312 -96.827560 7,200 79 233 0
2019-10-19 16:11:58 GMT 32.500584 -96.834335 7,175 94 236 0
2019-10-19 16:11:54 GMT 32.500580 -96.840088 7,200 93 235 64
2019-10-19 16:11:48 GMT 32.500946 -96.847061 7,175 94 236 0
2019-10-19 16:11:45 GMT 32.501236 -96.852104 7,175 94 236 0
2019-10-19 16:11:41 GMT 32.501495 -96.856346 7,175 94 236 0
2019-10-19 16:11:37 GMT 32.501842 -96.862419 7,175 94 236 0
2019-10-19 16:11:34 GMT 32.501999 -96.864914 7,200 94 238 0
2019-10-19 16:11:29 GMT 32.502445 -96.871780 7,175 94 237 0
2019-10-19 16:11:26 GMT 32.502678 -96.875366 7,175 94 237 0
2019-10-19 16:11:23 GMT 32.502869 -96.878647 7,175 94 238 0
2019-10-19 16:11:18 GMT 32.503326 -96.885681 7,175 94 238 0
2019-10-19 16:11:15 GMT 32.503609 -96.889435 7,175 94 238 0
2019-10-19 16:11:12 GMT 32.503841 -96.892853 7,200 95 240 -64
2019-10-19 16:11:09 GMT 32.504517 -96.902382 7,175 94 239 0
2019-10-19 16:11:05 GMT 32.504517 -96.902382 7,175 95 239 0
2019-10-19 16:11:02 GMT 32.504822 -96.906921 7,200 95 240 -64
2019-10-19 16:10:55 GMT 32.505566 -96.916344 7,200 95 240 -64
2019-10-19 16:10:50 GMT 32.506073 -96.922211 7,200 95 240 0
2019-10-19 16:10:44 GMT 32.506821 -96.930412 7,200 97 237 0
2019-10-19 16:10:39 GMT 32.507523 -96.936630 7,200 98 237 0
2019-10-19 16:10:36 GMT 32.508266 -96.941734 7,200 106 235 64
2019-10-19 16:10:33 GMT 32.508728 -96.944405 7,200 106 235 64
2019-10-19 16:10:27 GMT 32.510742 -96.951706 7,200 114 234 0
2019-10-19 16:10:23 GMT 32.513260 -96.956818 7,200 126 233 64
2019-10-19 16:10:16 GMT 32.517483 -96.962418 7,175 140 230 0
2019-10-19 16:10:12 GMT 32.521439 -96.965782 7,175 152 227 0
2019-10-19 16:10:05 GMT 32.527725 -96.968849 7,175 163 224 -64
2019-10-19 16:10:01 GMT 32.532101 -96.969872 7,175 172 221 0
2019-10-19 16:09:56 GMT 32.536652 -96.970551 7,200 173 221 0
2019-10-19 16:09:50 GMT 32.543198 -96.971375 7,175 173 221 0
2019-10-19 16:09:45 GMT 32.547684 -96.971977 7,200 173 221 -64
2019-10-19 16:09:38 GMT 32.555748 -96.973007 7,200 174 221 0
2019-10-19 16:09:35 GMT 32.558670 -96.973404 7,200 173 221 64
2019-10-19 16:09:28 GMT 32.566734 -96.974411 7,175 173 221 64
2019-10-19 16:09:24 GMT 32.569996 -96.974861 7,175 173 221 64
2019-10-19 16:09:19 GMT 32.574883 -96.975479 7,175 173 221 -64
2019-10-19 16:09:12 GMT 32.582108 -96.976486 7,175 173 221 64
2019-10-19 16:09:05 GMT 32.589844 -96.977524 7,175 173 221 0
2019-10-19 16:09:00 GMT 32.593735 -96.978134 7,175 172 222 0
2019-10-19 16:08:57 GMT 32.597275 -96.978783 7,175 169 223 0
2019-10-19 16:08:53 GMT 32.601654 -96.979668 7,175 168 224 0
2019-10-19 16:08:50 GMT 32.604210 -96.980301 7,175 167 224 0
2019-10-19 16:08:47 GMT 32.612309 -96.982712 7,175 158 229 0
2019-10-19 16:08:43 GMT 32.612309 -96.982712 7,175 162 227 -64
2019-10-19 16:08:39 GMT 32.615250 -96.983734 7,175 162 227 -64
2019-10-19 16:08:36 GMT 32.619385 -96.985344 7,175 160 228 0
2019-10-19 16:08:32 GMT 32.623158 -96.986969 7,200 157 229 0
2019-10-19 16:08:29 GMT 32.625717 -96.988144 7,175 156 229 0
2019-10-19 16:08:23 GMT 32.631023 -96.990784 7,175 156 229 0
2019-10-19 16:08:18 GMT 32.636284 -96.993530 7,175 156 229 0
2019-10-19 16:08:15 GMT 32.639145 -96.994942 7,175 156 230 0
2019-10-19 16:08:12 GMT 32.641777 -96.996269 7,175 156 230 0
2019-10-19 16:08:07 GMT 32.647316 -96.999077 7,175 157 231 -128
2019-10-19 16:08:02 GMT 32.652996 -97.001991 7,175 156 230 0
2019-10-19 16:07:57 GMT 32.656349 -97.003670 7,175 157 231 -64
2019-10-19 16:07:54 GMT 32.659973 -97.005486 7,200 157 229 64
2019-10-19 16:07:51 GMT 32.663910 -97.007462 7,200 157 229 64
2019-10-19 16:07:47 GMT 32.667381 -97.009109 7,175 157 228 512
2019-10-19 16:07:43 GMT 32.671665 -97.011238 7,150 157 225 1024
2019-10-19 16:07:39 GMT 32.675156 -97.012978 7,100 157 225 1024
2019-10-19 16:07:34 GMT 32.680069 -97.015373 6,950 157 224 1216
2019-10-19 16:07:30 GMT 32.682652 -97.016678 6,950 157 224 1280
2019-10-19 16:07:27 GMT 32.686020 -97.018288 6,875 157 223 1280
2019-10-19 16:07:23 GMT 32.690704 -97.020653 6,775 157 223 1216
2019-10-19 16:07:20 GMT 32.692337 -97.021416 6,750 159 222 1024
2019-10-19 16:07:16 GMT 32.696243 -97.023346 6,675 158 223 1088
2019-10-19 16:07:13 GMT 32.699066 -97.024605 6,625 176 215 1344
2019-10-19 16:07:10 GMT 32.703140 -97.026199 6,625 176 215 1344
2019-10-19 16:07:05 GMT 32.707138 -97.027435 6,450 166 217 1536
2019-10-19 16:07:01 GMT 32.711792 -97.028557 6,375 169 217 1536
2019-10-19 16:06:58 GMT 32.714355 -97.029053 6,250 174 215 1280
2019-10-19 16:06:54 GMT 32.719574 -97.029770 6,175 176 215 1280
2019-10-19 16:06:50 GMT 32.723557 -97.030045 6,075 177 214 1536
2019-10-19 16:06:38 GMT 32.735439 -97.030014 4,825 181 219 1984
2019-10-19 16:06:30 GMT 32.743168 -97.029961 5,425 181 219 1984
2019-10-19 16:06:27 GMT 32.746490 -97.029930 5,325 181 219 1984
2019-10-19 16:06:20 GMT 32.753269 -97.029907 5,075 181 218 1920
2019-10-19 16:06:17 GMT 32.756653 -97.029877 5,025 181 218 1856
2019-10-19 16:06:07 GMT 32.765560 -97.029739 4,800 181 214 1536
2019-10-19 16:06:04 GMT 32.768646 -97.029655 4,375 181 212 1600
2019-10-19 16:05:56 GMT 32.777336 -97.029572 4,500 181 207 1536
2019-10-19 16:05:48 GMT 32.783669 -97.029510 4,325 181 205 1792
2019-10-19 16:05:45 GMT 32.787781 -97.029495 4,175 179 204 2304
2019-10-19 16:05:35 GMT 32.799728 -97.029678 3,400 179 213 2432
2019-10-19 16:05:24 GMT 32.807922 -97.029709 3,225 181 214 2496
2019-10-19 16:05:21 GMT 32.810898 -97.029709 2,675 181 215 2432
2019-10-19 16:05:12 GMT 32.818863 -97.029709 2,900 179 215 1664
2019-10-19 16:05:09 GMT 32.822662 -97.029709 2,825 180 214 1600
2019-10-19 16:05:03 GMT 32.828266 -97.029625 2,700 181 209 1088
2019-10-19 16:04:59 GMT 32.832687 -97.029625 2,600 181 193 768
2019-10-19 16:04:53 GMT 32.838821 -97.029602 2,575 181 197 512
2019-10-19 16:04:48 GMT 32.842884 -97.029510 2,475 180 181 1792
2019-10-19 16:04:43 GMT 32.847260 -97.029510 2,450 178 176 2112
2019-10-19 16:04:37 GMT 32.852463 -97.029602 2,275 180 181 1792
2019-10-19 16:04:27 GMT 32.860062 -97.029625 2,025 179 179 1664
2019-10-19 16:04:24 GMT 32.862247 -97.029625 1,975 181 179 1536

Making use of Plane Finder data

You are free to use the raw flight data, aircraft information and images provided in this report for your own purposes provided the data is correctly attributed to Plane Finder. We ask that you please credit Plane Finder and link to planefinder.net in close proximity to the content.

Optionally one of the following logos (no smaller then 150x24px) can be used and must link to planefinder.net

Embedding the Plane Finder map

You are welcome to embed the Plane Finder playback map on your website to offer visitors a more interactive experience. We suggest using the following HTML code:

<iframe src="//planefinder.net/data/report/AA5792-N914FJ-7700-squawk-2019-10-19/map" width="800" height="600" seamless="seamless"></iframe>

Where our data comes from

Plane Finder has a global network of data feeds and antenna radars that receive data broadcast directly from aircraft. The primary technologies used are ADS-B and MLAT. We also show feeds from the FAA and a FLARM glider feed.

Click here to find out more about the Plane Finder network.

How we collect our data